createdAt,value
2019-01-26T00:00:49.075Z,87.00
2019-01-26T00:03:17.859Z,87.80
2019-01-26T00:05:46.601Z,87.60
2019-01-26T00:08:15.361Z,87.60
2019-01-26T00:10:44.332Z,88.00
2019-01-26T00:13:13.182Z,87.70
2019-01-26T00:15:41.888Z,87.90
2019-01-26T00:18:10.617Z,87.90
2019-01-26T00:20:39.306Z,88.20
2019-01-26T00:23:07.990Z,88.20
2019-01-26T00:25:36.710Z,88.90
2019-01-26T00:28:05.446Z,88.90
2019-01-26T00:30:34.119Z,89.50
2019-01-26T00:33:02.791Z,89.40
2019-01-26T00:35:32.259Z,89.80
2019-01-26T00:38:01.016Z,90.10
2019-01-26T00:40:29.971Z,90.30
2019-01-26T00:42:58.914Z,90.30
2019-01-26T00:45:27.601Z,90.30
2019-01-26T00:47:56.275Z,90.50
2019-01-26T00:50:25.243Z,90.70
2019-01-26T00:52:53.957Z,90.70
2019-01-26T00:55:22.637Z,90.80
2019-01-26T00:57:51.381Z,90.90
2019-01-26T01:00:20.226Z,91.00
2019-01-26T01:02:48.994Z,90.90
2019-01-26T01:05:17.948Z,91.10
2019-01-26T01:07:46.797Z,91.10
2019-01-26T01:10:15.939Z,91.20
2019-01-26T01:12:44.851Z,91.30
2019-01-26T01:15:14.610Z,91.30
2019-01-26T01:17:43.286Z,91.20
2019-01-26T01:20:13.384Z,91.30
2019-01-26T01:22:42.187Z,91.60
2019-01-26T01:25:11.088Z,91.70
2019-01-26T01:27:40.052Z,91.80
2019-01-26T01:30:11.357Z,91.90
2019-01-26T01:32:40.116Z,91.90
2019-01-26T01:35:09.189Z,92.10
2019-01-26T01:37:38.066Z,92.30
2019-01-26T01:40:07.746Z,92.50
2019-01-26T01:42:36.887Z,92.70
2019-01-26T01:45:07.539Z,92.70
2019-01-26T01:47:36.575Z,92.60
2019-01-26T01:50:06.190Z,92.90
2019-01-26T01:52:35.045Z,93.10
2019-01-26T01:55:04.162Z,92.90
2019-01-26T01:57:32.865Z,93.00
2019-01-26T02:00:01.667Z,93.20
2019-01-26T02:02:30.474Z,93.20
2019-01-26T02:04:59.500Z,93.20
2019-01-26T02:07:28.169Z,93.30
2019-01-26T02:09:57.081Z,93.40
2019-01-26T02:12:25.883Z,93.30
2019-01-26T02:14:54.646Z,93.50
2019-01-26T02:17:23.508Z,93.50
2019-01-26T02:19:52.278Z,93.80
2019-01-26T02:22:20.990Z,93.90
2019-01-26T02:24:49.681Z,94.10
2019-01-26T02:27:18.443Z,94.20
2019-01-26T02:29:47.134Z,94.10
2019-01-26T02:32:15.911Z,94.10
2019-01-26T02:34:44.630Z,94.30
2019-01-26T02:37:13.750Z,94.60
2019-01-26T02:39:42.832Z,95.10
2019-01-26T02:42:11.829Z,95.10
2019-01-26T02:44:40.501Z,95.10
2019-01-26T02:47:10.602Z,95.20
2019-01-26T02:49:40.077Z,95.30
2019-01-26T02:52:08.962Z,95.10
2019-01-26T02:54:38.135Z,95.20
2019-01-26T02:57:07.088Z,95.30
2019-01-26T02:59:36.243Z,95.30
2019-01-26T03:02:06.408Z,95.20
2019-01-26T03:04:35.135Z,95.10
2019-01-26T03:07:04.568Z,95.10
2019-01-26T03:09:33.452Z,95.00
2019-01-26T03:12:03.106Z,94.70
2019-01-26T03:14:31.815Z,94.90
2019-01-26T03:17:05.873Z,95.20
2019-01-26T03:19:31.425Z,95.50
2019-01-26T03:22:00.494Z,95.70
2019-01-26T03:24:29.704Z,95.50
2019-01-26T03:26:59.024Z,95.70
2019-01-26T03:29:28.163Z,95.80
2019-01-26T03:31:56.916Z,96.00
2019-01-26T03:34:25.726Z,96.10
2019-01-26T03:36:54.618Z,96.20
2019-01-26T03:39:23.635Z,96.00
2019-01-26T03:41:55.614Z,95.90
2019-01-26T03:44:24.307Z,95.80
2019-01-26T03:46:53.099Z,95.60
2019-01-26T03:49:22.278Z,95.70
2019-01-26T03:51:51.261Z,95.80
2019-01-26T03:54:20.343Z,95.70
2019-01-26T03:56:49.280Z,96.00
2019-01-26T03:59:18.039Z,95.90
2019-01-26T04:01:48.173Z,96.00
2019-01-26T04:04:17.210Z,95.80
2019-01-26T04:06:48.746Z,95.80
2019-01-26T04:09:17.640Z,95.70
2019-01-26T04:11:47.285Z,95.50
2019-01-26T04:14:16.461Z,95.60
2019-01-26T04:16:45.315Z,95.60
2019-01-26T04:19:14.078Z,95.60
2019-01-26T04:21:42.769Z,95.70
2019-01-26T04:24:11.509Z,95.70
2019-01-26T04:26:41.040Z,95.60
2019-01-26T04:29:11.434Z,95.80
2019-01-26T04:31:40.254Z,95.70
2019-01-26T04:34:09.057Z,95.40
2019-01-26T04:36:37.791Z,95.30
2019-01-26T04:39:08.302Z,95.20
2019-01-26T04:41:37.218Z,95.20
2019-01-26T04:44:06.887Z,95.10
2019-01-26T04:46:36.599Z,95.20
2019-01-26T04:49:05.598Z,95.30
2019-01-26T04:51:34.294Z,95.20
2019-01-26T04:54:02.990Z,95.30
2019-01-26T04:56:31.938Z,95.30
2019-01-26T04:59:00.938Z,95.60
2019-01-26T05:01:29.680Z,95.60
2019-01-26T05:03:58.445Z,95.60
2019-01-26T05:06:27.356Z,95.70
2019-01-26T05:08:56.371Z,95.60
2019-01-26T05:11:25.038Z,95.70
2019-01-26T05:13:53.715Z,95.50
2019-01-26T05:16:22.739Z,95.50
2019-01-26T05:18:51.402Z,95.50
2019-01-26T05:21:20.075Z,95.50
2019-01-26T05:23:49.093Z,95.50
2019-01-26T05:26:17.806Z,95.50
2019-01-26T05:28:46.486Z,95.40
2019-01-26T05:31:15.531Z,95.60
2019-01-26T05:33:44.563Z,95.60
2019-01-26T05:36:13.276Z,95.40
2019-01-26T05:38:42.102Z,95.50
2019-01-26T05:41:10.786Z,95.40
2019-01-26T05:43:39.511Z,95.50
2019-01-26T05:46:08.493Z,95.60
2019-01-26T05:48:37.443Z,95.60
2019-01-26T05:51:06.502Z,95.70
2019-01-26T05:53:35.239Z,95.80
2019-01-26T05:56:04.083Z,95.80
2019-01-26T05:58:32.794Z,95.90
2019-01-26T06:01:01.700Z,96.00
2019-01-26T06:03:30.609Z,96.10
2019-01-26T06:05:59.465Z,96.10
2019-01-26T06:08:28.331Z,96.10
2019-01-26T06:10:57.472Z,96.20
2019-01-26T06:13:26.318Z,96.20
2019-01-26T06:15:55.549Z,96.20
2019-01-26T06:18:24.375Z,96.30
2019-01-26T06:20:53.050Z,96.30
2019-01-26T06:23:22.061Z,96.30
2019-01-26T06:25:50.817Z,96.30
2019-01-26T06:28:19.487Z,96.20
2019-01-26T06:30:48.268Z,96.10
2019-01-26T06:33:16.926Z,96.10
2019-01-26T06:35:45.862Z,96.00
2019-01-26T06:38:14.567Z,96.00
2019-01-26T06:40:43.319Z,96.00
2019-01-26T06:43:11.985Z,96.10
2019-01-26T06:45:40.755Z,96.10
2019-01-26T06:48:10.462Z,96.10
2019-01-26T06:50:39.139Z,96.20
2019-01-26T06:53:07.907Z,96.20
2019-01-26T06:55:36.595Z,96.10
2019-01-26T06:58:06.306Z,96.10
2019-01-26T07:00:35.153Z,96.20
2019-01-26T07:03:03.988Z,96.20
2019-01-26T07:05:39.110Z,96.60
2019-01-26T07:08:09.223Z,96.40
2019-01-26T07:10:37.963Z,96.60
2019-01-26T07:13:06.690Z,96.80
2019-01-26T07:15:35.727Z,96.80
2019-01-26T07:18:09.356Z,97.20
2019-01-26T07:20:35.298Z,97.00
2019-01-26T07:23:04.291Z,97.00
2019-01-26T07:25:32.989Z,97.10
2019-01-26T07:28:01.919Z,97.20
2019-01-26T07:30:30.794Z,97.30
2019-01-26T07:32:59.460Z,97.40
2019-01-26T07:35:28.172Z,97.40
2019-01-26T07:37:56.899Z,97.40
2019-01-26T07:40:26.779Z,97.50
2019-01-26T07:42:56.529Z,97.60
2019-01-26T07:45:25.556Z,97.50
2019-01-26T07:47:54.746Z,97.40
2019-01-26T07:50:23.786Z,97.40
2019-01-26T07:52:52.802Z,97.30
2019-01-26T07:55:26.055Z,97.40
2019-01-26T07:57:54.923Z,97.40
2019-01-26T08:00:25.276Z,97.20
2019-01-26T08:02:54.088Z,97.10
2019-01-26T08:05:22.853Z,97.10
2019-01-26T08:07:51.908Z,96.90
2019-01-26T08:10:22.303Z,96.90
2019-01-26T08:13:02.798Z,96.90
2019-01-26T08:15:34.481Z,96.90
2019-01-26T08:18:05.710Z,96.70
2019-01-26T08:20:34.549Z,97.00
2019-01-26T08:23:03.657Z,96.60
2019-01-26T08:25:32.355Z,96.40
2019-01-26T08:28:01.014Z,96.50
2019-01-26T08:30:29.750Z,96.50
2019-01-26T08:32:58.684Z,96.50
2019-01-26T08:35:27.419Z,96.50
2019-01-26T08:37:56.261Z,96.60
2019-01-26T08:40:25.042Z,96.60
2019-01-26T08:42:53.898Z,96.50
2019-01-26T08:45:22.713Z,96.50
2019-01-26T08:47:51.534Z,96.40
2019-01-26T08:50:22.325Z,96.40
2019-01-26T08:52:51.485Z,96.30
2019-01-26T08:55:20.486Z,96.30
2019-01-26T08:57:49.508Z,96.40
2019-01-26T09:00:27.246Z,96.20
2019-01-26T09:03:18.367Z,96.20
2019-01-26T09:05:58.406Z,96.20
2019-01-26T09:08:27.070Z,96.20
2019-01-26T09:10:55.823Z,96.30
2019-01-26T09:13:24.602Z,96.40
2019-01-26T09:15:53.267Z,96.60
2019-01-26T09:18:21.950Z,96.60
2019-01-26T09:20:50.722Z,96.80
2019-01-26T09:23:19.514Z,96.80
2019-01-26T09:25:50.474Z,96.60
2019-01-26T09:28:19.570Z,96.60
2019-01-26T09:30:48.378Z,96.70
2019-01-26T09:33:17.240Z,96.70
2019-01-26T09:35:46.444Z,96.90
2019-01-26T09:38:15.150Z,97.00
2019-01-26T09:40:44.966Z,97.30
2019-01-26T09:43:14.641Z,97.00
2019-01-26T09:45:43.712Z,96.80
2019-01-26T09:48:12.659Z,96.70
2019-01-26T09:50:41.444Z,96.80
2019-01-26T09:53:13.357Z,96.90
2019-01-26T09:55:42.531Z,97.00
2019-01-26T09:58:11.992Z,96.90
2019-01-26T10:00:40.832Z,96.90
2019-01-26T10:03:09.801Z,96.80
2019-01-26T10:05:38.648Z,96.80
2019-01-26T10:08:07.304Z,96.60
2019-01-26T10:10:36.002Z,96.50
2019-01-26T10:13:04.967Z,96.30
2019-01-26T10:15:33.682Z,96.30
2019-01-26T10:18:02.347Z,96.20
2019-01-26T10:20:32.727Z,96.20
2019-01-26T10:23:01.612Z,96.00
2019-01-26T10:25:30.343Z,96.00
2019-01-26T10:27:59.140Z,95.80
2019-01-26T10:30:33.730Z,95.80
2019-01-26T10:33:02.769Z,95.90
2019-01-26T10:35:48.974Z,96.00
2019-01-26T10:38:18.231Z,96.00
2019-01-26T10:41:04.706Z,96.00
2019-01-26T10:43:36.342Z,96.10
2019-01-26T10:46:05.096Z,96.30
2019-01-26T10:48:34.150Z,96.10
2019-01-26T10:51:03.290Z,96.00
2019-01-26T10:53:32.342Z,95.90
2019-01-26T10:56:01.082Z,95.90
2019-01-26T10:58:30.006Z,95.70
2019-01-26T11:00:58.930Z,95.80
2019-01-26T11:03:27.696Z,95.70
2019-01-26T11:05:56.551Z,95.70
2019-01-26T11:08:25.906Z,95.60
2019-01-26T11:10:54.767Z,95.60
2019-01-26T11:13:23.848Z,95.70
2019-01-26T11:15:52.534Z,95.70
2019-01-26T11:18:21.452Z,95.70
2019-01-26T11:20:50.151Z,95.70
2019-01-26T11:23:19.030Z,95.80
2019-01-26T11:25:47.727Z,95.70
2019-01-26T11:28:16.443Z,95.60
2019-01-26T11:30:45.324Z,95.50
2019-01-26T11:33:14.275Z,95.60
2019-01-26T11:35:42.979Z,95.60
2019-01-26T11:38:11.733Z,95.30
2019-01-26T11:40:40.386Z,95.20
2019-01-26T11:43:09.086Z,95.30
2019-01-26T11:46:08.903Z,95.30
2019-01-26T11:48:41.324Z,95.20
2019-01-26T11:51:24.678Z,95.10
2019-01-26T11:53:53.422Z,95.20
2019-01-26T11:56:47.100Z,95.10
2019-01-26T11:59:16.854Z,95.00
2019-01-26T12:01:55.954Z,94.90
2019-01-26T12:04:32.782Z,94.90
2019-01-26T12:07:07.842Z,94.90
2019-01-26T12:09:36.503Z,95.00
2019-01-26T12:12:05.946Z,94.90
2019-01-26T12:14:34.929Z,95.00
2019-01-26T12:17:06.187Z,94.90
2019-01-26T12:19:35.169Z,95.20
2019-01-26T12:22:04.017Z,95.00
2019-01-26T12:24:32.673Z,95.00
2019-01-26T12:27:01.683Z,94.90
2019-01-26T12:29:30.755Z,94.80
2019-01-26T12:31:59.839Z,94.80
2019-01-26T12:34:28.666Z,95.20
2019-01-26T12:36:57.401Z,95.00
2019-01-26T12:39:26.225Z,95.00
2019-01-26T12:41:55.790Z,95.10
2019-01-26T12:44:24.451Z,95.20
2019-01-26T12:46:53.118Z,95.20
2019-01-26T12:49:21.951Z,94.90
2019-01-26T12:51:50.601Z,94.90
2019-01-26T12:54:19.389Z,94.80
2019-01-26T12:56:49.087Z,94.80
2019-01-26T12:59:17.801Z,94.90
2019-01-26T13:01:46.527Z,94.80
2019-01-26T13:04:16.260Z,94.80
2019-01-26T13:06:44.929Z,94.70
2019-01-26T13:09:13.850Z,94.70
2019-01-26T13:11:43.771Z,94.80
2019-01-26T13:14:12.841Z,94.90
2019-01-26T13:16:42.057Z,95.10
2019-01-26T13:19:11.072Z,95.10
2019-01-26T13:21:39.998Z,95.20
2019-01-26T13:24:08.891Z,95.10
2019-01-26T13:26:37.940Z,95.20
2019-01-26T13:29:06.850Z,94.90
2019-01-26T13:31:35.708Z,94.90
2019-01-26T13:34:05.171Z,94.80
2019-01-26T13:36:34.255Z,94.80
2019-01-26T13:39:05.217Z,94.60
2019-01-26T13:41:34.032Z,94.60
2019-01-26T13:44:02.743Z,94.60
2019-01-26T13:46:31.417Z,94.50
2019-01-26T13:49:00.354Z,94.70
2019-01-26T13:51:29.021Z,94.70
2019-01-26T13:53:57.704Z,94.60
2019-01-26T13:56:26.920Z,94.80
2019-01-26T13:58:55.698Z,94.40
2019-01-26T14:01:24.602Z,94.60
2019-01-26T14:03:53.647Z,94.60
2019-01-26T14:06:22.482Z,94.60
2019-01-26T14:08:51.161Z,94.80
2019-01-26T14:11:19.962Z,94.70
2019-01-26T14:13:48.622Z,94.60
2019-01-26T14:16:17.289Z,94.40
2019-01-26T14:18:46.441Z,94.30
2019-01-26T14:21:15.358Z,94.10
2019-01-26T14:23:44.020Z,94.40
2019-01-26T14:26:12.766Z,94.50
2019-01-26T14:28:41.866Z,94.40
2019-01-26T14:31:10.527Z,94.70
2019-01-26T14:33:39.519Z,94.70
2019-01-26T14:36:08.606Z,94.60
2019-01-26T14:38:37.395Z,94.70
2019-01-26T14:41:06.610Z,94.70
2019-01-26T14:43:35.274Z,94.60
2019-01-26T14:46:05.342Z,94.60
2019-01-26T14:48:34.027Z,94.40
2019-01-26T14:51:02.763Z,94.60
2019-01-26T14:53:31.795Z,94.70
2019-01-26T14:56:00.854Z,94.70
2019-01-26T14:58:29.610Z,94.60
2019-01-26T15:01:01.241Z,94.50
2019-01-26T15:03:29.941Z,94.60
2019-01-26T15:06:00.496Z,94.60
2019-01-26T15:08:31.099Z,94.60
2019-01-26T15:11:02.398Z,94.60
2019-01-26T15:13:31.121Z,94.80
2019-01-26T15:15:59.835Z,95.10
2019-01-26T15:18:28.559Z,94.70
2019-01-26T15:20:57.475Z,94.80
2019-01-26T15:23:26.166Z,94.90
2019-01-26T15:25:55.182Z,94.90
2019-01-26T15:28:23.962Z,95.00
2019-01-26T15:30:52.687Z,95.10
2019-01-26T15:33:22.545Z,95.10
2019-01-26T15:35:51.455Z,95.30
2019-01-26T15:38:20.137Z,95.60
2019-01-26T15:40:51.171Z,95.60
2019-01-26T15:43:19.914Z,95.80
2019-01-26T15:45:49.699Z,95.70
2019-01-26T15:48:19.601Z,95.90
2019-01-26T15:50:48.306Z,95.80
2019-01-26T15:53:17.118Z,96.00
2019-01-26T15:55:45.894Z,96.00
2019-01-26T15:58:14.555Z,96.00
2019-01-26T16:00:47.835Z,96.20
2019-01-26T16:03:16.890Z,96.30
2019-01-26T16:05:45.730Z,96.30
2019-01-26T16:08:14.544Z,96.40
2019-01-26T16:10:43.891Z,96.40
2019-01-26T16:13:12.658Z,96.30
2019-01-26T16:15:41.528Z,96.40
2019-01-26T16:18:12.875Z,96.40
2019-01-26T16:20:41.558Z,96.20
2019-01-26T16:23:10.303Z,96.20
2019-01-26T16:25:39.552Z,96.50
2019-01-26T16:28:08.570Z,96.30
2019-01-26T16:30:37.444Z,96.30
2019-01-26T16:33:07.688Z,96.40
2019-01-26T16:35:36.452Z,96.50
2019-01-26T16:38:05.633Z,96.70
2019-01-26T16:40:35.400Z,96.80
2019-01-26T16:43:04.334Z,96.70
2019-01-26T16:45:34.845Z,96.60
2019-01-26T16:48:04.674Z,96.80
2019-01-26T16:50:35.615Z,96.70
2019-01-26T16:53:04.858Z,96.70
2019-01-26T16:55:33.615Z,96.80
2019-01-26T16:58:02.291Z,96.70
2019-01-26T17:00:36.885Z,97.00
2019-01-26T17:03:05.835Z,97.20
2019-01-26T17:05:34.564Z,97.10
2019-01-26T17:08:03.334Z,97.00
2019-01-26T17:10:34.264Z,97.00
2019-01-26T17:13:03.110Z,96.90
2019-01-26T17:15:31.805Z,97.10
2019-01-26T17:18:01.774Z,97.00
2019-01-26T17:20:35.051Z,97.10
2019-01-26T17:23:01.506Z,97.00
2019-01-26T17:25:30.682Z,97.00
2019-01-26T17:27:59.641Z,97.20
2019-01-26T17:30:33.929Z,97.10
2019-01-26T17:33:07.524Z,97.20
2019-01-26T17:35:36.651Z,97.00
2019-01-26T17:38:06.435Z,97.00
2019-01-26T17:40:35.428Z,97.10
2019-01-26T17:43:04.324Z,97.10
2019-01-26T17:45:33.139Z,97.10
2019-01-26T17:48:02.156Z,97.20
2019-01-26T17:50:30.838Z,97.10
2019-01-26T17:52:59.495Z,97.00
2019-01-26T17:55:28.439Z,97.00
2019-01-26T17:57:57.439Z,97.00
2019-01-26T18:00:54.043Z,96.90
2019-01-26T18:03:22.933Z,96.90
2019-01-26T18:05:51.993Z,96.90
2019-01-26T18:08:21.781Z,96.90
2019-01-26T18:10:50.538Z,97.00
2019-01-26T18:13:19.358Z,97.00
2019-01-26T18:15:48.311Z,97.20
2019-01-26T18:18:17.470Z,97.50
2019-01-26T18:20:49.301Z,97.50
2019-01-26T18:23:20.718Z,97.40
2019-01-26T18:25:49.569Z,97.20
2019-01-26T18:28:18.478Z,97.10
2019-01-26T18:30:47.266Z,96.90
2019-01-26T18:33:18.706Z,96.90
2019-01-26T18:35:47.392Z,96.80
2019-01-26T18:38:16.195Z,96.80
2019-01-26T18:40:44.972Z,97.00
2019-01-26T18:43:15.130Z,97.20
2019-01-26T18:45:44.316Z,97.50
2019-01-26T18:48:13.023Z,97.60
2019-01-26T18:50:43.429Z,97.60
2019-01-26T18:53:12.210Z,97.60
2019-01-26T18:55:41.158Z,97.50
2019-01-26T18:58:09.827Z,97.50
2019-01-26T19:00:42.738Z,97.70
2019-01-26T19:03:19.331Z,97.90
2019-01-26T19:05:48.398Z,98.10
2019-01-26T19:08:19.243Z,98.20
2019-01-26T19:10:47.908Z,98.00
2019-01-26T19:13:16.615Z,98.00
2019-01-26T19:15:45.312Z,98.10
2019-01-26T19:18:14.341Z,98.00
2019-01-26T19:20:44.461Z,97.90
2019-01-26T19:23:13.290Z,98.00
2019-01-26T19:25:42.178Z,97.90
2019-01-26T19:28:10.879Z,97.90
2019-01-26T19:30:39.638Z,97.80
2019-01-26T19:33:08.405Z,97.70
2019-01-26T19:35:37.217Z,97.80
2019-01-26T19:38:06.043Z,97.80
2019-01-26T19:40:34.727Z,97.90
2019-01-26T19:43:03.468Z,97.80
2019-01-26T19:45:32.618Z,97.70
2019-01-26T19:48:01.291Z,97.90
2019-01-26T19:50:30.399Z,97.90
2019-01-26T19:53:08.674Z,97.80
2019-01-26T19:55:43.294Z,97.80
2019-01-26T19:58:14.987Z,97.70
2019-01-26T20:00:45.446Z,97.60
2019-01-26T20:03:15.210Z,97.60
2019-01-26T20:06:32.264Z,97.50
2019-01-26T20:09:09.439Z,97.50
2019-01-26T20:11:36.760Z,97.40
2019-01-26T20:14:05.600Z,97.30
2019-01-26T20:16:36.476Z,97.70
2019-01-26T20:19:05.126Z,97.90
2019-01-26T20:21:34.210Z,97.90
2019-01-26T20:24:06.582Z,98.20
2019-01-26T20:26:35.590Z,98.20
2019-01-26T20:29:04.710Z,98.10
2019-01-26T20:31:33.414Z,98.00
2019-01-26T20:34:02.454Z,97.90
2019-01-26T20:36:31.115Z,97.90
2019-01-26T20:39:02.159Z,97.90
2019-01-26T20:41:33.304Z,97.60
2019-01-26T20:44:02.017Z,97.60
2019-01-26T20:46:30.839Z,97.60
2019-01-26T20:48:59.587Z,97.70
2019-01-26T20:51:28.427Z,97.50
2019-01-26T20:53:57.158Z,97.50
2019-01-26T20:56:25.856Z,97.50
2019-01-26T20:58:54.534Z,97.70
2019-01-26T21:01:26.742Z,97.60
2019-01-26T21:03:55.498Z,97.40
2019-01-26T21:06:49.694Z,97.30
2019-01-26T21:09:00.252Z,97.60
2019-01-26T21:11:44.633Z,97.60
2019-01-26T21:14:16.137Z,97.70
2019-01-26T21:16:46.323Z,97.90
2019-01-26T21:19:21.897Z,98.00
2019-01-26T21:21:48.766Z,97.90
2019-01-26T21:24:20.430Z,97.80
2019-01-26T21:26:54.358Z,97.90
2019-01-26T21:29:25.065Z,97.90
2019-01-26T21:31:53.956Z,97.70
2019-01-26T21:34:22.834Z,97.60
2019-01-26T21:36:51.639Z,97.60
2019-01-26T21:39:20.467Z,97.70
2019-01-26T21:41:51.552Z,97.70
2019-01-26T21:44:21.510Z,97.80
2019-01-26T21:46:50.414Z,97.80
2019-01-26T21:49:19.527Z,97.80
2019-01-26T21:51:53.127Z,97.80
2019-01-26T21:54:21.832Z,97.90
2019-01-26T21:56:51.599Z,97.90
2019-01-26T21:59:23.230Z,98.10
2019-01-26T22:01:51.964Z,98.10
2019-01-26T22:04:24.142Z,98.30
2019-01-26T22:07:05.655Z,98.50
2019-01-26T22:09:31.988Z,98.80
2019-01-26T22:12:04.153Z,98.70
2019-01-26T22:14:32.811Z,98.60
2019-01-26T22:17:03.430Z,98.60
2019-01-26T22:19:32.209Z,98.50
2019-01-26T22:22:04.364Z,98.60
2019-01-26T22:24:35.381Z,98.70
2019-01-26T22:27:04.853Z,98.70
2019-01-26T22:29:36.587Z,98.70
2019-01-26T22:32:07.819Z,98.70
2019-01-26T22:34:39.593Z,98.70
2019-01-26T22:37:08.393Z,98.60
2019-01-26T22:39:37.090Z,98.70
2019-01-26T22:42:06.004Z,98.70
2019-01-26T22:44:34.679Z,98.70
2019-01-26T22:47:03.387Z,98.60
2019-01-26T22:49:32.062Z,98.60
2019-01-26T22:52:01.022Z,98.60
2019-01-26T22:54:31.320Z,98.60
2019-01-26T22:57:00.040Z,98.50
2019-01-26T22:59:29.097Z,98.30
2019-01-26T23:01:59.230Z,98.50
2019-01-26T23:04:54.632Z,98.50
2019-01-26T23:07:35.852Z,98.80
2019-01-26T23:10:46.098Z,98.40
2019-01-26T23:13:46.118Z,98.40
2019-01-26T23:16:43.610Z,98.40
2019-01-26T23:19:28.438Z,98.50
2019-01-26T23:22:44.798Z,98.50
2019-01-26T23:25:19.238Z,98.40
2019-01-26T23:28:19.845Z,98.40
2019-01-26T23:31:11.871Z,98.30
2019-01-26T23:33:41.037Z,98.30
2019-01-26T23:36:09.866Z,98.40
2019-01-26T23:38:38.590Z,98.40
2019-01-26T23:41:07.289Z,98.40
2019-01-26T23:43:36.063Z,98.40
2019-01-26T23:46:05.286Z,98.30
2019-01-26T23:48:33.999Z,98.20
2019-01-26T23:51:02.757Z,98.20
2019-01-26T23:53:31.482Z,98.10
2019-01-26T23:56:00.193Z,98.20
2019-01-26T23:58:28.926Z,98.20
